This is the latest recevied weather packets stored in our database for station/object PY1LEO-13. If no packets are shown the sender has not sent any weather packets the latest 10 day(s).
| Time | Temp. | Humidity | Pressure | Rain* | Wind** | Luminosity | Snow |
|---|---|---|---|---|---|---|---|
| 1777493160 | 28.89° C | 65% | 1013.7 hPa | - | - | - | - |
| 1777492860 | 28.89° C | 66% | 1013.6 hPa | - | - | - | - |
| 1777492560 | 28.89° C | 66% | 1013.5 hPa | - | - | - | - |
| 1777492260 | 28.89° C | 66% | 1013.3 hPa | - | - | - | - |
| 1777491960 | 29.44° C | 66% | 1013.3 hPa | - | - | - | - |
| 1777491660 | 28.89° C | 67% | 1013.3 hPa | - | - | - | - |
| 1777491360 | 28.89° C | 67% | 1013.2 hPa | - | - | - | - |
| 1777491060 | 29.44° C | 67% | 1013.2 hPa | - | - | - | - |
| 1777490760 | 29.44° C | 67% | 1013.1 hPa | - | - | - | - |
| 1777490460 | 28.89° C | 68% | 1013 hPa | - | - | - | - |
| 1777490160 | 28.89° C | 67% | 1013 hPa | - | - | - | - |
| 1777489860 | 28.89° C | 67% | 1012.9 hPa | - | - | - | - |
| 1777489560 | 29.44° C | 67% | 1012.9 hPa | - | - | - | - |
| 1777489260 | 28.89° C | 68% | 1012.8 hPa | - | - | - | - |
| 1777488960 | 28.89° C | 68% | 1012.8 hPa | - | - | - | - |
| 1777488660 | 29.44° C | 66% | 1012.7 hPa | - | - | - | - |
| 1777488360 | 29.44° C | 66% | 1012.7 hPa | - | - | - | - |
| 1777488060 | 30° C | 64% | 1012.6 hPa | - | - | - | - |
| 1777487760 | 29.44° C | 66% | 1012.5 hPa | - | - | - | - |
| 1777487460 | 30.56° C | 63% | 1012.5 hPa | - | - | - | - |
| 1777487160 | 30.56° C | 63% | 1012.4 hPa | - | - | - | - |
| 1777486860 | 30.56° C | 63% | 1012.5 hPa | - | - | - | - |
| 1777486560 | 30.56° C | 62% | 1012.4 hPa | - | - | - | - |
| 1777486260 | 30.56° C | 62% | 1012.3 hPa | - | - | - | - |
| 1777485960 | 30.56° C | 62% | 1012.3 hPa | - | - | - | - |
* Rain since midnight (hover to see other rain measurements)
** Current wind speed in m/s (hover to see current wind gust speed)